sensor_id;sensor_type;location;lat;lon;timestamp;P1;durP1;ratioP1;P2;durP2;ratioP2
75054;SDS011;63636;44.746;10.488;2023-02-24T00:00:20;59.20;;;28.33;;
75054;SDS011;63636;44.746;10.488;2023-02-24T00:03:09;57.10;;;27.27;;
75054;SDS011;63636;44.746;10.488;2023-02-24T00:05:36;56.08;;;28.10;;
75054;SDS011;63636;44.746;10.488;2023-02-24T00:08:04;56.53;;;27.17;;
75054;SDS011;63636;44.746;10.488;2023-02-24T00:10:30;59.92;;;27.17;;
75054;SDS011;63636;44.746;10.488;2023-02-24T00:12:57;56.85;;;26.52;;
75054;SDS011;63636;44.746;10.488;2023-02-24T00:15:23;59.85;;;27.52;;
75054;SDS011;63636;44.746;10.488;2023-02-24T00:17:48;56.35;;;26.40;;
75054;SDS011;63636;44.746;10.488;2023-02-24T00:20:14;57.53;;;26.80;;
75054;SDS011;63636;44.746;10.488;2023-02-24T00:22:41;60.47;;;26.65;;
75054;SDS011;63636;44.746;10.488;2023-02-24T00:25:06;53.70;;;25.27;;
75054;SDS011;63636;44.746;10.488;2023-02-24T00:27:32;53.90;;;25.80;;
75054;SDS011;63636;44.746;10.488;2023-02-24T00:29:58;56.45;;;26.08;;
75054;SDS011;63636;44.746;10.488;2023-02-24T00:32:23;57.58;;;27.65;;
75054;SDS011;63636;44.746;10.488;2023-02-24T00:34:49;54.60;;;26.15;;
75054;SDS011;63636;44.746;10.488;2023-02-24T00:37:14;55.78;;;27.10;;
75054;SDS011;63636;44.746;10.488;2023-02-24T00:39:40;54.67;;;26.52;;
75054;SDS011;63636;44.746;10.488;2023-02-24T00:42:06;53.15;;;25.52;;
75054;SDS011;63636;44.746;10.488;2023-02-24T00:45:06;51.83;;;25.33;;
75054;SDS011;63636;44.746;10.488;2023-02-24T00:47:24;54.60;;;26.48;;
75054;SDS011;63636;44.746;10.488;2023-02-24T00:49:50;57.58;;;26.00;;
75054;SDS011;63636;44.746;10.488;2023-02-24T00:52:16;53.40;;;25.20;;
75054;SDS011;63636;44.746;10.488;2023-02-24T00:54:43;52.28;;;24.33;;
75054;SDS011;63636;44.746;10.488;2023-02-24T00:57:09;54.65;;;24.55;;
75054;SDS011;63636;44.746;10.488;2023-02-24T00:59:35;52.13;;;24.58;;
75054;SDS011;63636;44.746;10.488;2023-02-24T01:02:01;49.15;;;23.17;;
75054;SDS011;63636;44.746;10.488;2023-02-24T01:04:28;50.15;;;23.55;;
75054;SDS011;63636;44.746;10.488;2023-02-24T01:06:53;47.90;;;22.90;;
75054;SDS011;63636;44.746;10.488;2023-02-24T01:09:24;53.20;;;24.58;;
75054;SDS011;63636;44.746;10.488;2023-02-24T01:11:52;48.30;;;22.77;;
75054;SDS011;63636;44.746;10.488;2023-02-24T01:14:36;50.05;;;22.08;;
75054;SDS011;63636;44.746;10.488;2023-02-24T01:17:04;48.65;;;23.00;;
75054;SDS011;63636;44.746;10.488;2023-02-24T01:19:31;48.88;;;21.77;;
75054;SDS011;63636;44.746;10.488;2023-02-24T01:22:03;48.83;;;21.10;;
75054;SDS011;63636;44.746;10.488;2023-02-24T01:24:30;50.38;;;22.08;;
75054;SDS011;63636;44.746;10.488;2023-02-24T01:26:56;45.88;;;21.92;;
75054;SDS011;63636;44.746;10.488;2023-02-24T01:29:22;53.15;;;21.65;;
75054;SDS011;63636;44.746;10.488;2023-02-24T01:31:47;48.20;;;21.60;;
75054;SDS011;63636;44.746;10.488;2023-02-24T01:34:16;48.03;;;21.83;;
75054;SDS011;63636;44.746;10.488;2023-02-24T01:36:42;48.00;;;22.00;;
75054;SDS011;63636;44.746;10.488;2023-02-24T01:39:08;48.80;;;22.30;;
75054;SDS011;63636;44.746;10.488;2023-02-24T01:41:36;47.78;;;22.80;;
75054;SDS011;63636;44.746;10.488;2023-02-24T01:46:42;52.22;;;23.08;;
75054;SDS011;63636;44.746;10.488;2023-02-24T01:49:10;51.08;;;21.83;;
75054;SDS011;63636;44.746;10.488;2023-02-24T01:51:46;52.90;;;23.60;;
75054;SDS011;63636;44.746;10.488;2023-02-24T01:54:14;55.65;;;23.50;;
75054;SDS011;63636;44.746;10.488;2023-02-24T01:56:40;46.63;;;22.02;;
75054;SDS011;63636;44.746;10.488;2023-02-24T01:59:06;45.58;;;21.80;;
75054;SDS011;63636;44.746;10.488;2023-02-24T02:01:34;52.67;;;22.25;;
75054;SDS011;63636;44.746;10.488;2023-02-24T02:04:13;47.10;;;20.75;;
75054;SDS011;63636;44.746;10.488;2023-02-24T02:06:41;50.88;;;21.73;;
75054;SDS011;63636;44.746;10.488;2023-02-24T02:09:07;49.08;;;22.08;;
75054;SDS011;63636;44.746;10.488;2023-02-24T02:11:34;45.88;;;21.30;;
75054;SDS011;63636;44.746;10.488;2023-02-24T02:14:01;47.67;;;20.60;;
75054;SDS011;63636;44.746;10.488;2023-02-24T02:19:33;45.33;;;20.70;;
75054;SDS011;63636;44.746;10.488;2023-02-24T02:22:06;48.83;;;21.25;;
75054;SDS011;63636;44.746;10.488;2023-02-24T02:24:40;48.63;;;20.42;;
75054;SDS011;63636;44.746;10.488;2023-02-24T02:27:16;43.70;;;20.75;;
75054;SDS011;63636;44.746;10.488;2023-02-24T02:32:24;45.63;;;20.65;;
75054;SDS011;63636;44.746;10.488;2023-02-24T02:34:56;41.22;;;19.67;;
75054;SDS011;63636;44.746;10.488;2023-02-24T02:37:31;45.25;;;19.38;;
75054;SDS011;63636;44.746;10.488;2023-02-24T02:42:27;42.78;;;20.23;;
75054;SDS011;63636;44.746;10.488;2023-02-24T02:47:41;45.85;;;19.75;;
75054;SDS011;63636;44.746;10.488;2023-02-24T02:52:48;45.15;;;19.83;;
75054;SDS011;63636;44.746;10.488;2023-02-24T02:55:20;46.45;;;19.00;;
75054;SDS011;63636;44.746;10.488;2023-02-24T02:57:49;40.58;;;18.90;;
75054;SDS011;63636;44.746;10.488;2023-02-24T03:00:20;43.30;;;19.30;;
75054;SDS011;63636;44.746;10.488;2023-02-24T03:02:51;43.50;;;19.17;;
75054;SDS011;63636;44.746;10.488;2023-02-24T03:05:20;45.72;;;19.48;;
75054;SDS011;63636;44.746;10.488;2023-02-24T03:07:50;42.08;;;19.23;;
75054;SDS011;63636;44.746;10.488;2023-02-24T03:10:21;43.58;;;18.48;;
75054;SDS011;63636;44.746;10.488;2023-02-24T03:12:52;40.28;;;18.38;;
75054;SDS011;63636;44.746;10.488;2023-02-24T03:15:18;40.00;;;18.50;;
75054;SDS011;63636;44.746;10.488;2023-02-24T03:17:49;41.40;;;18.40;;
75054;SDS011;63636;44.746;10.488;2023-02-24T03:20:23;39.40;;;18.27;;
75054;SDS011;63636;44.746;10.488;2023-02-24T03:22:55;37.40;;;17.35;;
75054;SDS011;63636;44.746;10.488;2023-02-24T03:25:28;41.65;;;18.08;;
75054;SDS011;63636;44.746;10.488;2023-02-24T03:27:59;41.75;;;17.52;;
75054;SDS011;63636;44.746;10.488;2023-02-24T03:30:39;40.05;;;17.80;;
75054;SDS011;63636;44.746;10.488;2023-02-24T03:33:16;38.67;;;17.27;;
75054;SDS011;63636;44.746;10.488;2023-02-24T03:35:43;39.28;;;17.77;;
75054;SDS011;63636;44.746;10.488;2023-02-24T03:38:10;37.55;;;17.42;;
75054;SDS011;63636;44.746;10.488;2023-02-24T03:40:36;39.75;;;17.90;;
75054;SDS011;63636;44.746;10.488;2023-02-24T03:43:17;42.15;;;18.35;;
75054;SDS011;63636;44.746;10.488;2023-02-24T03:45:45;41.28;;;17.38;;
75054;SDS011;63636;44.746;10.488;2023-02-24T03:48:11;40.83;;;17.88;;
75054;SDS011;63636;44.746;10.488;2023-02-24T03:50:38;40.55;;;18.13;;
75054;SDS011;63636;44.746;10.488;2023-02-24T03:56:00;37.03;;;17.20;;
75054;SDS011;63636;44.746;10.488;2023-02-24T03:58:40;43.35;;;17.83;;
75054;SDS011;63636;44.746;10.488;2023-02-24T04:03:37;39.72;;;17.88;;
75054;SDS011;63636;44.746;10.488;2023-02-24T04:08:55;36.25;;;16.67;;
75054;SDS011;63636;44.746;10.488;2023-02-24T04:11:28;39.65;;;17.13;;
75054;SDS011;63636;44.746;10.488;2023-02-24T04:13:58;38.83;;;16.52;;
75054;SDS011;63636;44.746;10.488;2023-02-24T04:16:27;40.40;;;17.30;;
75054;SDS011;63636;44.746;10.488;2023-02-24T04:18:59;39.92;;;16.85;;
75054;SDS011;63636;44.746;10.488;2023-02-24T04:21:28;40.88;;;16.60;;
75054;SDS011;63636;44.746;10.488;2023-02-24T04:23:56;35.70;;;15.40;;
75054;SDS011;63636;44.746;10.488;2023-02-24T04:26:23;37.72;;;16.10;;
75054;SDS011;63636;44.746;10.488;2023-02-24T04:28:52;36.53;;;15.80;;
75054;SDS011;63636;44.746;10.488;2023-02-24T04:31:19;36.20;;;16.23;;
75054;SDS011;63636;44.746;10.488;2023-02-24T04:33:46;35.78;;;15.80;;
75054;SDS011;63636;44.746;10.488;2023-02-24T04:36:16;35.67;;;16.63;;
75054;SDS011;63636;44.746;10.488;2023-02-24T04:38:42;36.35;;;16.33;;
75054;SDS011;63636;44.746;10.488;2023-02-24T04:41:11;37.70;;;15.98;;
75054;SDS011;63636;44.746;10.488;2023-02-24T04:43:36;35.45;;;15.30;;
75054;SDS011;63636;44.746;10.488;2023-02-24T04:46:02;35.55;;;15.90;;
75054;SDS011;63636;44.746;10.488;2023-02-24T04:48:34;33.67;;;15.85;;
75054;SDS011;63636;44.746;10.488;2023-02-24T04:51:00;36.92;;;16.48;;
75054;SDS011;63636;44.746;10.488;2023-02-24T04:53:26;39.03;;;17.42;;
75054;SDS011;63636;44.746;10.488;2023-02-24T04:55:52;36.00;;;17.58;;
75054;SDS011;63636;44.746;10.488;2023-02-24T04:58:18;35.75;;;17.42;;
75054;SDS011;63636;44.746;10.488;2023-02-24T05:00:45;35.88;;;15.98;;
75054;SDS011;63636;44.746;10.488;2023-02-24T05:03:13;35.92;;;16.00;;
75054;SDS011;63636;44.746;10.488;2023-02-24T05:05:39;37.75;;;15.18;;
75054;SDS011;63636;44.746;10.488;2023-02-24T05:08:08;40.28;;;17.08;;
75054;SDS011;63636;44.746;10.488;2023-02-24T05:10:35;34.58;;;15.75;;
75054;SDS011;63636;44.746;10.488;2023-02-24T05:13:01;35.33;;;15.88;;
75054;SDS011;63636;44.746;10.488;2023-02-24T05:15:27;33.53;;;14.82;;
75054;SDS011;63636;44.746;10.488;2023-02-24T05:17:56;33.83;;;15.90;;
75054;SDS011;63636;44.746;10.488;2023-02-24T05:20:22;31.52;;;15.10;;
75054;SDS011;63636;44.746;10.488;2023-02-24T05:23:06;32.38;;;15.05;;
75054;SDS011;63636;44.746;10.488;2023-02-24T05:25:34;34.78;;;14.93;;
75054;SDS011;63636;44.746;10.488;2023-02-24T05:28:03;33.75;;;14.73;;
75054;SDS011;63636;44.746;10.488;2023-02-24T05:30:28;33.75;;;14.68;;
75054;SDS011;63636;44.746;10.488;2023-02-24T05:32:54;35.50;;;15.52;;
75054;SDS011;63636;44.746;10.488;2023-02-24T05:35:20;37.10;;;15.63;;
75054;SDS011;63636;44.746;10.488;2023-02-24T05:37:46;32.47;;;14.82;;
75054;SDS011;63636;44.746;10.488;2023-02-24T05:40:12;35.33;;;14.48;;
75054;SDS011;63636;44.746;10.488;2023-02-24T05:42:38;38.80;;;15.15;;
75054;SDS011;63636;44.746;10.488;2023-02-24T05:45:03;31.00;;;15.55;;
75054;SDS011;63636;44.746;10.488;2023-02-24T05:47:29;32.40;;;14.00;;
75054;SDS011;63636;44.746;10.488;2023-02-24T05:49:56;29.00;;;13.88;;
75054;SDS011;63636;44.746;10.488;2023-02-24T05:52:23;30.83;;;13.68;;
75054;SDS011;63636;44.746;10.488;2023-02-24T05:54:48;32.97;;;14.30;;
75054;SDS011;63636;44.746;10.488;2023-02-24T05:57:15;35.15;;;14.88;;
75054;SDS011;63636;44.746;10.488;2023-02-24T05:59:43;31.65;;;13.93;;
75054;SDS011;63636;44.746;10.488;2023-02-24T06:02:10;31.60;;;13.80;;
75054;SDS011;63636;44.746;10.488;2023-02-24T06:04:37;31.05;;;14.05;;
75054;SDS011;63636;44.746;10.488;2023-02-24T06:07:17;33.05;;;14.90;;
75054;SDS011;63636;44.746;10.488;2023-02-24T06:09:46;31.77;;;15.32;;
75054;SDS011;63636;44.746;10.488;2023-02-24T06:12:18;33.25;;;14.65;;
75054;SDS011;63636;44.746;10.488;2023-02-24T06:14:44;34.45;;;14.20;;
75054;SDS011;63636;44.746;10.488;2023-02-24T06:17:10;36.75;;;15.95;;
75054;SDS011;63636;44.746;10.488;2023-02-24T06:19:35;34.50;;;15.25;;
75054;SDS011;63636;44.746;10.488;2023-02-24T06:22:01;32.10;;;14.73;;
75054;SDS011;63636;44.746;10.488;2023-02-24T06:24:28;35.85;;;15.75;;
75054;SDS011;63636;44.746;10.488;2023-02-24T06:26:54;34.70;;;15.18;;
75054;SDS011;63636;44.746;10.488;2023-02-24T06:29:27;32.75;;;14.13;;
75054;SDS011;63636;44.746;10.488;2023-02-24T06:31:54;34.05;;;14.70;;
75054;SDS011;63636;44.746;10.488;2023-02-24T06:34:21;35.55;;;14.48;;
75054;SDS011;63636;44.746;10.488;2023-02-24T06:36:46;35.45;;;15.02;;
75054;SDS011;63636;44.746;10.488;2023-02-24T06:39:13;31.98;;;13.90;;
75054;SDS011;63636;44.746;10.488;2023-02-24T06:47:47;30.20;;;13.55;;
75054;SDS011;63636;44.746;10.488;2023-02-24T06:50:16;32.75;;;14.57;;
75054;SDS011;63636;44.746;10.488;2023-02-24T06:52:47;35.47;;;14.15;;
75054;SDS011;63636;44.746;10.488;2023-02-24T06:55:13;33.42;;;13.75;;
75054;SDS011;63636;44.746;10.488;2023-02-24T06:57:57;28.45;;;13.70;;
75054;SDS011;63636;44.746;10.488;2023-02-24T07:00:24;32.33;;;14.60;;
75054;SDS011;63636;44.746;10.488;2023-02-24T07:03:08;32.78;;;14.52;;
75054;SDS011;63636;44.746;10.488;2023-02-24T07:06:01;32.70;;;14.80;;
75054;SDS011;63636;44.746;10.488;2023-02-24T07:08:44;32.58;;;14.57;;
75054;SDS011;63636;44.746;10.488;2023-02-24T07:11:10;35.20;;;15.35;;
75054;SDS011;63636;44.746;10.488;2023-02-24T07:13:38;36.22;;;15.90;;
75054;SDS011;63636;44.746;10.488;2023-02-24T07:16:05;41.53;;;17.50;;
75054;SDS011;63636;44.746;10.488;2023-02-24T07:18:36;35.63;;;17.23;;
75054;SDS011;63636;44.746;10.488;2023-02-24T07:21:06;38.45;;;15.38;;
75054;SDS011;63636;44.746;10.488;2023-02-24T07:23:41;34.75;;;15.57;;
75054;SDS011;63636;44.746;10.488;2023-02-24T07:26:11;34.30;;;16.17;;
75054;SDS011;63636;44.746;10.488;2023-02-24T07:28:37;34.00;;;15.70;;
75054;SDS011;63636;44.746;10.488;2023-02-24T07:31:05;28.80;;;14.35;;
75054;SDS011;63636;44.746;10.488;2023-02-24T07:33:33;29.55;;;14.15;;
75054;SDS011;63636;44.746;10.488;2023-02-24T07:35:59;29.77;;;15.00;;
75054;SDS011;63636;44.746;10.488;2023-02-24T07:38:24;34.50;;;15.48;;
75054;SDS011;63636;44.746;10.488;2023-02-24T07:40:50;32.38;;;15.07;;
75054;SDS011;63636;44.746;10.488;2023-02-24T07:43:15;26.50;;;13.15;;
75054;SDS011;63636;44.746;10.488;2023-02-24T07:45:44;27.30;;;13.95;;
75054;SDS011;63636;44.746;10.488;2023-02-24T07:48:11;31.00;;;15.00;;
75054;SDS011;63636;44.746;10.488;2023-02-24T07:50:39;25.50;;;13.13;;
75054;SDS011;63636;44.746;10.488;2023-02-24T07:53:06;28.00;;;13.55;;
75054;SDS011;63636;44.746;10.488;2023-02-24T07:55:33;28.65;;;13.88;;
75054;SDS011;63636;44.746;10.488;2023-02-24T07:58:06;29.63;;;14.15;;
75054;SDS011;63636;44.746;10.488;2023-02-24T08:00:31;30.48;;;14.27;;
75054;SDS011;63636;44.746;10.488;2023-02-24T08:03:14;29.75;;;13.95;;
75054;SDS011;63636;44.746;10.488;2023-02-24T08:05:39;28.80;;;13.80;;
75054;SDS011;63636;44.746;10.488;2023-02-24T08:08:07;29.25;;;14.10;;
75054;SDS011;63636;44.746;10.488;2023-02-24T08:10:33;32.38;;;13.50;;
75054;SDS011;63636;44.746;10.488;2023-02-24T08:13:01;30.67;;;14.05;;
75054;SDS011;63636;44.746;10.488;2023-02-24T08:15:28;28.65;;;13.45;;
75054;SDS011;63636;44.746;10.488;2023-02-24T08:17:58;30.60;;;13.65;;
75054;SDS011;63636;44.746;10.488;2023-02-24T08:20:28;31.33;;;14.20;;
75054;SDS011;63636;44.746;10.488;2023-02-24T08:23:00;29.08;;;13.65;;
75054;SDS011;63636;44.746;10.488;2023-02-24T08:25:26;33.88;;;14.98;;
75054;SDS011;63636;44.746;10.488;2023-02-24T08:28:02;29.27;;;14.48;;
75054;SDS011;63636;44.746;10.488;2023-02-24T08:30:30;30.88;;;14.25;;
75054;SDS011;63636;44.746;10.488;2023-02-24T08:33:03;30.25;;;14.80;;
75054;SDS011;63636;44.746;10.488;2023-02-24T08:35:30;29.25;;;15.38;;
75054;SDS011;63636;44.746;10.488;2023-02-24T08:37:59;33.03;;;16.52;;
75054;SDS011;63636;44.746;10.488;2023-02-24T08:40:27;33.97;;;16.60;;
75054;SDS011;63636;44.746;10.488;2023-02-24T08:45:24;33.80;;;17.45;;
75054;SDS011;63636;44.746;10.488;2023-02-24T08:47:53;34.20;;;16.85;;
75054;SDS011;63636;44.746;10.488;2023-02-24T08:50:27;38.13;;;17.80;;
75054;SDS011;63636;44.746;10.488;2023-02-24T08:52:58;37.63;;;17.52;;
75054;SDS011;63636;44.746;10.488;2023-02-24T08:55:25;35.28;;;18.33;;
75054;SDS011;63636;44.746;10.488;2023-02-24T08:57:57;36.27;;;17.97;;
75054;SDS011;63636;44.746;10.488;2023-02-24T09:00:28;32.25;;;17.55;;
75054;SDS011;63636;44.746;10.488;2023-02-24T09:03:16;33.88;;;17.33;;
75054;SDS011;63636;44.746;10.488;2023-02-24T09:06:02;37.50;;;18.15;;
75054;SDS011;63636;44.746;10.488;2023-02-24T09:08:36;37.72;;;18.90;;
75054;SDS011;63636;44.746;10.488;2023-02-24T09:13:37;35.05;;;18.67;;
75054;SDS011;63636;44.746;10.488;2023-02-24T09:16:07;38.83;;;18.17;;
75054;SDS011;63636;44.746;10.488;2023-02-24T09:18:40;34.67;;;17.65;;
75054;SDS011;63636;44.746;10.488;2023-02-24T09:21:13;35.75;;;18.45;;
75054;SDS011;63636;44.746;10.488;2023-02-24T09:23:58;37.38;;;18.73;;
75054;SDS011;63636;44.746;10.488;2023-02-24T09:26:27;34.72;;;17.67;;
75054;SDS011;63636;44.746;10.488;2023-02-24T09:28:57;32.67;;;17.70;;
75054;SDS011;63636;44.746;10.488;2023-02-24T09:31:23;34.58;;;17.60;;
75054;SDS011;63636;44.746;10.488;2023-02-24T09:34:06;31.95;;;16.65;;
75054;SDS011;63636;44.746;10.488;2023-02-24T09:36:34;33.38;;;17.67;;
75054;SDS011;63636;44.746;10.488;2023-02-24T09:39:09;36.85;;;17.67;;
75054;SDS011;63636;44.746;10.488;2023-02-24T09:41:53;34.03;;;17.90;;
75054;SDS011;63636;44.746;10.488;2023-02-24T09:44:35;32.80;;;16.85;;
75054;SDS011;63636;44.746;10.488;2023-02-24T09:49:54;34.43;;;16.97;;
75054;SDS011;63636;44.746;10.488;2023-02-24T09:52:27;36.95;;;18.70;;
75054;SDS011;63636;44.746;10.488;2023-02-24T10:00:39;32.15;;;16.27;;
75054;SDS011;63636;44.746;10.488;2023-02-24T10:03:13;31.92;;;16.70;;
75054;SDS011;63636;44.746;10.488;2023-02-24T10:05:55;32.80;;;16.95;;
75054;SDS011;63636;44.746;10.488;2023-02-24T10:08:33;32.70;;;16.80;;
75054;SDS011;63636;44.746;10.488;2023-02-24T10:11:02;31.98;;;16.60;;
75054;SDS011;63636;44.746;10.488;2023-02-24T10:13:32;34.83;;;17.00;;
75054;SDS011;63636;44.746;10.488;2023-02-24T10:16:03;31.42;;;17.15;;
75054;SDS011;63636;44.746;10.488;2023-02-24T10:21:23;31.70;;;17.50;;
75054;SDS011;63636;44.746;10.488;2023-02-24T10:26:26;29.08;;;15.52;;
75054;SDS011;63636;44.746;10.488;2023-02-24T10:29:08;31.67;;;15.50;;
75054;SDS011;63636;44.746;10.488;2023-02-24T10:31:46;28.58;;;15.82;;
75054;SDS011;63636;44.746;10.488;2023-02-24T10:34:13;32.22;;;16.33;;
75054;SDS011;63636;44.746;10.488;2023-02-24T10:36:44;28.90;;;16.13;;
75054;SDS011;63636;44.746;10.488;2023-02-24T10:39:15;29.73;;;16.25;;
75054;SDS011;63636;44.746;10.488;2023-02-24T10:41:48;32.45;;;17.02;;
75054;SDS011;63636;44.746;10.488;2023-02-24T10:44:22;29.20;;;15.27;;
75054;SDS011;63636;44.746;10.488;2023-02-24T10:46:57;31.05;;;15.70;;
75054;SDS011;63636;44.746;10.488;2023-02-24T10:49:55;29.17;;;15.77;;
75054;SDS011;63636;44.746;10.488;2023-02-24T10:52:26;28.17;;;15.23;;
75054;SDS011;63636;44.746;10.488;2023-02-24T10:55:18;26.80;;;15.02;;
75054;SDS011;63636;44.746;10.488;2023-02-24T10:57:54;24.30;;;13.90;;
75054;SDS011;63636;44.746;10.488;2023-02-24T11:00:37;27.45;;;14.85;;
75054;SDS011;63636;44.746;10.488;2023-02-24T11:03:16;25.27;;;13.77;;
75054;SDS011;63636;44.746;10.488;2023-02-24T11:05:59;24.65;;;13.95;;
75054;SDS011;63636;44.746;10.488;2023-02-24T11:08:28;22.48;;;13.57;;
75054;SDS011;63636;44.746;10.488;2023-02-24T11:11:27;22.90;;;13.27;;
75054;SDS011;63636;44.746;10.488;2023-02-24T11:13:58;24.60;;;12.88;;
75054;SDS011;63636;44.746;10.488;2023-02-24T11:16:48;25.83;;;13.77;;
75054;SDS011;63636;44.746;10.488;2023-02-24T11:19:36;27.67;;;14.88;;
75054;SDS011;63636;44.746;10.488;2023-02-24T11:24:34;24.10;;;13.90;;
75054;SDS011;63636;44.746;10.488;2023-02-24T11:27:01;22.30;;;13.65;;
75054;SDS011;63636;44.746;10.488;2023-02-24T11:34:37;25.15;;;14.00;;
75054;SDS011;63636;44.746;10.488;2023-02-24T11:42:12;25.27;;;14.57;;
75054;SDS011;63636;44.746;10.488;2023-02-24T11:47:15;24.05;;;14.25;;
75054;SDS011;63636;44.746;10.488;2023-02-24T11:49:44;23.58;;;14.30;;
75054;SDS011;63636;44.746;10.488;2023-02-24T11:52:15;25.27;;;14.52;;
75054;SDS011;63636;44.746;10.488;2023-02-24T11:54:44;23.92;;;14.35;;
75054;SDS011;63636;44.746;10.488;2023-02-24T11:57:17;25.73;;;13.80;;
75054;SDS011;63636;44.746;10.488;2023-02-24T11:59:48;25.17;;;14.07;;
75054;SDS011;63636;44.746;10.488;2023-02-24T12:02:25;25.25;;;14.02;;
75054;SDS011;63636;44.746;10.488;2023-02-24T12:04:58;28.02;;;14.75;;
75054;SDS011;63636;44.746;10.488;2023-02-24T12:07:32;26.15;;;14.45;;
75054;SDS011;63636;44.746;10.488;2023-02-24T12:10:00;23.95;;;13.15;;
75054;SDS011;63636;44.746;10.488;2023-02-24T12:12:41;25.17;;;14.20;;
75054;SDS011;63636;44.746;10.488;2023-02-24T12:15:20;25.98;;;14.02;;
75054;SDS011;63636;44.746;10.488;2023-02-24T12:23:21;26.70;;;15.20;;
75054;SDS011;63636;44.746;10.488;2023-02-24T12:39:08;26.98;;;14.00;;
75054;SDS011;63636;44.746;10.488;2023-02-24T12:41:39;25.83;;;13.98;;
75054;SDS011;63636;44.746;10.488;2023-02-24T12:44:12;27.30;;;13.77;;
75054;SDS011;63636;44.746;10.488;2023-02-24T12:46:40;24.73;;;14.38;;
75054;SDS011;63636;44.746;10.488;2023-02-24T12:54:28;25.10;;;13.38;;
75054;SDS011;63636;44.746;10.488;2023-02-24T12:59:38;26.25;;;14.02;;
75054;SDS011;63636;44.746;10.488;2023-02-24T13:02:05;25.73;;;13.90;;
75054;SDS011;63636;44.746;10.488;2023-02-24T13:07:16;27.50;;;15.95;;
75054;SDS011;63636;44.746;10.488;2023-02-24T13:09:47;29.42;;;15.52;;
75054;SDS011;63636;44.746;10.488;2023-02-24T13:14:41;27.15;;;15.27;;
75054;SDS011;63636;44.746;10.488;2023-02-24T13:19:36;27.38;;;14.90;;
75054;SDS011;63636;44.746;10.488;2023-02-24T13:22:25;25.23;;;13.75;;
75054;SDS011;63636;44.746;10.488;2023-02-24T13:27:52;25.08;;;14.07;;
75054;SDS011;63636;44.746;10.488;2023-02-24T13:30:33;25.58;;;14.35;;
75054;SDS011;63636;44.746;10.488;2023-02-24T13:33:06;30.15;;;16.42;;
75054;SDS011;63636;44.746;10.488;2023-02-24T13:35:45;87.70;;;35.20;;
75054;SDS011;63636;44.746;10.488;2023-02-24T13:41:04;117.38;;;40.65;;
75054;SDS011;63636;44.746;10.488;2023-02-24T13:43:30;105.03;;;36.47;;
75054;SDS011;63636;44.746;10.488;2023-02-24T13:45:58;44.90;;;21.50;;
75054;SDS011;63636;44.746;10.488;2023-02-24T13:48:36;32.55;;;16.13;;
75054;SDS011;63636;44.746;10.488;2023-02-24T13:51:11;151.95;;;54.33;;
75054;SDS011;63636;44.746;10.488;2023-02-24T13:56:34;33.15;;;18.13;;
75054;SDS011;63636;44.746;10.488;2023-02-24T14:01:49;38.88;;;21.92;;
75054;SDS011;63636;44.746;10.488;2023-02-24T14:04:16;41.17;;;21.83;;
75054;SDS011;63636;44.746;10.488;2023-02-24T14:06:49;28.88;;;16.10;;
75054;SDS011;63636;44.746;10.488;2023-02-24T14:09:17;27.15;;;15.18;;
75054;SDS011;63636;44.746;10.488;2023-02-24T14:11:49;24.67;;;15.13;;
75054;SDS011;63636;44.746;10.488;2023-02-24T14:14:15;31.17;;;17.40;;
75054;SDS011;63636;44.746;10.488;2023-02-24T14:16:43;32.67;;;18.55;;
75054;SDS011;63636;44.746;10.488;2023-02-24T14:19:13;28.98;;;15.35;;
75054;SDS011;63636;44.746;10.488;2023-02-24T14:21:46;27.42;;;14.32;;
75054;SDS011;63636;44.746;10.488;2023-02-24T14:24:12;26.38;;;14.23;;
75054;SDS011;63636;44.746;10.488;2023-02-24T14:27:14;24.23;;;14.13;;
75054;SDS011;63636;44.746;10.488;2023-02-24T14:29:30;27.08;;;14.23;;
75054;SDS011;63636;44.746;10.488;2023-02-24T14:31:59;26.08;;;13.63;;
75054;SDS011;63636;44.746;10.488;2023-02-24T14:34:26;28.05;;;14.50;;
75054;SDS011;63636;44.746;10.488;2023-02-24T14:36:53;25.58;;;14.15;;
75054;SDS011;63636;44.746;10.488;2023-02-24T14:39:20;28.88;;;14.90;;
75054;SDS011;63636;44.746;10.488;2023-02-24T14:41:47;26.85;;;14.07;;
75054;SDS011;63636;44.746;10.488;2023-02-24T14:44:26;27.90;;;14.75;;
75054;SDS011;63636;44.746;10.488;2023-02-24T14:46:53;30.00;;;14.13;;
75054;SDS011;63636;44.746;10.488;2023-02-24T14:49:21;28.75;;;14.68;;
75054;SDS011;63636;44.746;10.488;2023-02-24T14:51:48;27.45;;;15.10;;
75054;SDS011;63636;44.746;10.488;2023-02-24T14:54:17;26.80;;;14.63;;
75054;SDS011;63636;44.746;10.488;2023-02-24T14:56:44;25.58;;;14.82;;
75054;SDS011;63636;44.746;10.488;2023-02-24T14:59:17;27.73;;;14.50;;
75054;SDS011;63636;44.746;10.488;2023-02-24T15:01:48;25.02;;;13.57;;
75054;SDS011;63636;44.746;10.488;2023-02-24T15:04:35;24.95;;;14.18;;
75054;SDS011;63636;44.746;10.488;2023-02-24T15:07:03;23.60;;;14.05;;
75054;SDS011;63636;44.746;10.488;2023-02-24T15:09:33;24.20;;;13.20;;
75054;SDS011;63636;44.746;10.488;2023-02-24T15:12:06;26.27;;;14.10;;
75054;SDS011;63636;44.746;10.488;2023-02-24T15:14:33;26.85;;;13.68;;
75054;SDS011;63636;44.746;10.488;2023-02-24T15:17:14;30.10;;;13.90;;
75054;SDS011;63636;44.746;10.488;2023-02-24T15:19:41;23.63;;;13.38;;
75054;SDS011;63636;44.746;10.488;2023-02-24T15:22:21;26.27;;;13.70;;
75054;SDS011;63636;44.746;10.488;2023-02-24T15:24:47;25.83;;;14.27;;
75054;SDS011;63636;44.746;10.488;2023-02-24T15:29:38;25.70;;;14.07;;
75054;SDS011;63636;44.746;10.488;2023-02-24T15:32:09;29.27;;;13.88;;
75054;SDS011;63636;44.746;10.488;2023-02-24T15:34:38;26.73;;;14.30;;
75054;SDS011;63636;44.746;10.488;2023-02-24T15:37:20;29.80;;;14.65;;
75054;SDS011;63636;44.746;10.488;2023-02-24T15:39:47;25.15;;;14.27;;
75054;SDS011;63636;44.746;10.488;2023-02-24T15:42:23;29.30;;;14.25;;
75054;SDS011;63636;44.746;10.488;2023-02-24T15:45:38;27.30;;;14.00;;
75054;SDS011;63636;44.746;10.488;2023-02-24T15:47:40;24.05;;;14.20;;
75054;SDS011;63636;44.746;10.488;2023-02-24T15:50:05;26.50;;;14.40;;
75054;SDS011;63636;44.746;10.488;2023-02-24T15:52:31;29.40;;;15.55;;
75054;SDS011;63636;44.746;10.488;2023-02-24T15:54:57;25.20;;;14.77;;
75054;SDS011;63636;44.746;10.488;2023-02-24T15:57:24;25.25;;;14.52;;
75054;SDS011;63636;44.746;10.488;2023-02-24T15:59:50;25.98;;;14.35;;
75054;SDS011;63636;44.746;10.488;2023-02-24T16:02:19;26.35;;;14.77;;
75054;SDS011;63636;44.746;10.488;2023-02-24T16:04:45;26.70;;;14.32;;
75054;SDS011;63636;44.746;10.488;2023-02-24T16:09:43;27.50;;;15.00;;
75054;SDS011;63636;44.746;10.488;2023-02-24T16:12:12;22.50;;;10.60;;
75054;SDS011;63636;44.746;10.488;2023-02-24T16:14:38;21.35;;;11.88;;
75054;SDS011;63636;44.746;10.488;2023-02-24T16:17:06;23.13;;;12.23;;
75054;SDS011;63636;44.746;10.488;2023-02-24T16:19:33;24.17;;;12.65;;
75054;SDS011;63636;44.746;10.488;2023-02-24T16:21:58;23.55;;;13.25;;